sensor_id;sensor_type;location;lat;lon;timestamp;pressure;altitude;pressure_sealevel;temperature;humidity
48810;BME280;40070;47.322;18.784;2023-05-18T00:00:11;1003.51;;;12.08;74.94
48810;BME280;40070;47.322;18.784;2023-05-18T00:02:12;1003.49;;;12.08;75.08
48810;BME280;40070;47.322;18.784;2023-05-18T00:04:13;1003.52;;;12.16;74.80
48810;BME280;40070;47.322;18.784;2023-05-18T00:06:14;1003.53;;;12.14;74.55
48810;BME280;40070;47.322;18.784;2023-05-18T00:08:15;1003.49;;;11.93;75.19
48810;BME280;40070;47.322;18.784;2023-05-18T00:10:16;1003.49;;;11.97;75.40
48810;BME280;40070;47.322;18.784;2023-05-18T00:12:17;1003.52;;;12.03;75.02
48810;BME280;40070;47.322;18.784;2023-05-18T00:14:18;1003.51;;;11.95;75.78
48810;BME280;40070;47.322;18.784;2023-05-18T00:16:20;1003.52;;;12.15;75.28
48810;BME280;40070;47.322;18.784;2023-05-18T00:18:21;1003.50;;;12.19;74.92
48810;BME280;40070;47.322;18.784;2023-05-18T00:20:22;1003.55;;;12.23;75.17
48810;BME280;40070;47.322;18.784;2023-05-18T00:22:23;1003.59;;;12.43;74.19
48810;BME280;40070;47.322;18.784;2023-05-18T00:24:24;1003.56;;;12.21;74.76
48810;BME280;40070;47.322;18.784;2023-05-18T00:26:25;1003.58;;;12.22;74.73
48810;BME280;40070;47.322;18.784;2023-05-18T00:28:25;1003.60;;;12.10;75.58
48810;BME280;40070;47.322;18.784;2023-05-18T00:30:26;1003.63;;;12.22;75.36
48810;BME280;40070;47.322;18.784;2023-05-18T00:32:27;1003.61;;;12.08;76.17
48810;BME280;40070;47.322;18.784;2023-05-18T00:34:28;1003.58;;;11.91;77.14
48810;BME280;40070;47.322;18.784;2023-05-18T00:36:29;1003.63;;;12.13;76.69
48810;BME280;40070;47.322;18.784;2023-05-18T00:38:30;1003.63;;;11.98;77.08
48810;BME280;40070;47.322;18.784;2023-05-18T00:40:31;1003.63;;;11.96;77.33
48810;BME280;40070;47.322;18.784;2023-05-18T00:42:32;1003.65;;;12.30;76.50
48810;BME280;40070;47.322;18.784;2023-05-18T00:44:33;1003.62;;;12.14;76.88
48810;BME280;40070;47.322;18.784;2023-05-18T00:46:34;1003.64;;;12.30;76.07
48810;BME280;40070;47.322;18.784;2023-05-18T00:48:35;1003.66;;;12.27;76.05
48810;BME280;40070;47.322;18.784;2023-05-18T00:50:36;1003.70;;;12.17;76.18
48810;BME280;40070;47.322;18.784;2023-05-18T00:52:36;1003.69;;;12.16;76.36
48810;BME280;40070;47.322;18.784;2023-05-18T00:54:38;1003.71;;;12.35;75.63
48810;BME280;40070;47.322;18.784;2023-05-18T00:56:39;1003.70;;;12.18;76.13
48810;BME280;40070;47.322;18.784;2023-05-18T00:58:40;1003.72;;;12.27;75.82
48810;BME280;40070;47.322;18.784;2023-05-18T01:00:41;1003.73;;;12.28;75.98
48810;BME280;40070;47.322;18.784;2023-05-18T01:02:42;1003.76;;;12.41;75.70
48810;BME280;40070;47.322;18.784;2023-05-18T01:04:42;1003.77;;;12.37;75.69
48810;BME280;40070;47.322;18.784;2023-05-18T01:06:43;1003.78;;;12.32;75.84
48810;BME280;40070;47.322;18.784;2023-05-18T01:08:44;1003.82;;;12.32;76.06
48810;BME280;40070;47.322;18.784;2023-05-18T01:10:45;1003.81;;;12.43;75.28
48810;BME280;40070;47.322;18.784;2023-05-18T01:12:57;1003.84;;;12.16;76.09
48810;BME280;40070;47.322;18.784;2023-05-18T01:15:33;1003.81;;;12.16;76.43
48810;BME280;40070;47.322;18.784;2023-05-18T01:17:37;1003.84;;;12.28;75.89
48810;BME280;40070;47.322;18.784;2023-05-18T01:22:14;1003.95;;;12.12;76.18
48810;BME280;40070;47.322;18.784;2023-05-18T01:24:19;1003.98;;;12.01;76.82
48810;BME280;40070;47.322;18.784;2023-05-18T01:26:23;1003.96;;;11.94;77.00
48810;BME280;40070;47.322;18.784;2023-05-18T01:28:29;1003.94;;;12.13;76.70
48810;BME280;40070;47.322;18.784;2023-05-18T01:30:32;1004.00;;;11.94;77.27
48810;BME280;40070;47.322;18.784;2023-05-18T01:32:44;1003.99;;;11.97;77.80
48810;BME280;40070;47.322;18.784;2023-05-18T01:34:45;1003.96;;;12.17;77.63
48810;BME280;40070;47.322;18.784;2023-05-18T01:36:46;1003.98;;;12.10;77.41
48810;BME280;40070;47.322;18.784;2023-05-18T01:38:47;1004.00;;;12.14;77.69
48810;BME280;40070;47.322;18.784;2023-05-18T01:43:07;1003.99;;;11.92;79.08
48810;BME280;40070;47.322;18.784;2023-05-18T01:45:12;1004.02;;;11.90;79.31
48810;BME280;40070;47.322;18.784;2023-05-18T01:47:15;1003.99;;;12.08;79.08
48810;BME280;40070;47.322;18.784;2023-05-18T01:49:19;1004.07;;;12.03;79.31
48810;BME280;40070;47.322;18.784;2023-05-18T01:51:25;1004.05;;;11.81;80.06
48810;BME280;40070;47.322;18.784;2023-05-18T01:53:32;1004.02;;;11.64;80.95
48810;BME280;40070;47.322;18.784;2023-05-18T01:55:37;1004.04;;;11.80;80.89
48810;BME280;40070;47.322;18.784;2023-05-18T01:57:40;1004.05;;;11.80;80.88
48810;BME280;40070;47.322;18.784;2023-05-18T01:59:42;1004.09;;;11.77;81.16
48810;BME280;40070;47.322;18.784;2023-05-18T02:01:43;1004.12;;;11.74;81.22
48810;BME280;40070;47.322;18.784;2023-05-18T02:03:44;1004.13;;;11.74;81.27
48810;BME280;40070;47.322;18.784;2023-05-18T02:05:45;1004.10;;;11.79;81.55
48810;BME280;40070;47.322;18.784;2023-05-18T02:07:45;1004.12;;;11.61;82.19
48810;BME280;40070;47.322;18.784;2023-05-18T02:09:46;1004.12;;;11.59;82.21
48810;BME280;40070;47.322;18.784;2023-05-18T02:11:48;1004.20;;;11.62;82.38
48810;BME280;40070;47.322;18.784;2023-05-18T02:13:49;1004.24;;;11.95;81.28
48810;BME280;40070;47.322;18.784;2023-05-18T02:15:50;1004.22;;;11.95;81.41
48810;BME280;40070;47.322;18.784;2023-05-18T02:17:50;1004.24;;;11.82;81.47
48810;BME280;40070;47.322;18.784;2023-05-18T02:19:52;1004.26;;;11.72;82.18
48810;BME280;40070;47.322;18.784;2023-05-18T02:21:53;1004.24;;;11.92;81.59
48810;BME280;40070;47.322;18.784;2023-05-18T02:23:54;1004.22;;;11.87;81.88
48810;BME280;40070;47.322;18.784;2023-05-18T02:25:54;1004.27;;;11.89;81.55
48810;BME280;40070;47.322;18.784;2023-05-18T02:27:55;1004.32;;;11.85;81.94
48810;BME280;40070;47.322;18.784;2023-05-18T02:29:56;1004.26;;;11.71;82.59
48810;BME280;40070;47.322;18.784;2023-05-18T02:31:57;1004.28;;;11.72;82.67
48810;BME280;40070;47.322;18.784;2023-05-18T02:33:58;1004.30;;;11.73;82.77
48810;BME280;40070;47.322;18.784;2023-05-18T02:35:59;1004.35;;;11.61;83.30
48810;BME280;40070;47.322;18.784;2023-05-18T02:38:00;1004.30;;;11.69;83.07
48810;BME280;40070;47.322;18.784;2023-05-18T02:40:01;1004.32;;;11.83;82.61
48810;BME280;40070;47.322;18.784;2023-05-18T02:42:02;1004.36;;;11.65;83.04
48810;BME280;40070;47.322;18.784;2023-05-18T02:44:03;1004.38;;;11.59;83.40
48810;BME280;40070;47.322;18.784;2023-05-18T02:46:04;1004.36;;;11.57;83.01
48810;BME280;40070;47.322;18.784;2023-05-18T02:48:05;1004.38;;;11.49;84.40
48810;BME280;40070;47.322;18.784;2023-05-18T02:50:06;1004.40;;;11.51;84.17
48810;BME280;40070;47.322;18.784;2023-05-18T02:52:07;1004.39;;;11.59;84.38
48810;BME280;40070;47.322;18.784;2023-05-18T02:54:08;1004.39;;;11.53;84.57
48810;BME280;40070;47.322;18.784;2023-05-18T02:56:09;1004.35;;;11.69;84.43
48810;BME280;40070;47.322;18.784;2023-05-18T02:58:10;1004.35;;;11.64;84.45
48810;BME280;40070;47.322;18.784;2023-05-18T03:00:11;1004.38;;;11.40;85.15
48810;BME280;40070;47.322;18.784;2023-05-18T03:02:12;1004.37;;;11.55;85.64
48810;BME280;40070;47.322;18.784;2023-05-18T03:04:13;1004.36;;;11.71;84.86
48810;BME280;40070;47.322;18.784;2023-05-18T03:06:14;1004.41;;;11.53;85.03
48810;BME280;40070;47.322;18.784;2023-05-18T03:08:15;1004.44;;;11.67;84.43
48810;BME280;40070;47.322;18.784;2023-05-18T03:10:16;1004.43;;;11.60;84.71
48810;BME280;40070;47.322;18.784;2023-05-18T03:12:16;1004.46;;;11.63;85.09
48810;BME280;40070;47.322;18.784;2023-05-18T03:14:17;1004.48;;;11.59;84.92
48810;BME280;40070;47.322;18.784;2023-05-18T03:16:18;1004.47;;;11.59;86.09
48810;BME280;40070;47.322;18.784;2023-05-18T03:18:19;1004.51;;;11.45;86.40
48810;BME280;40070;47.322;18.784;2023-05-18T03:20:20;1004.48;;;11.40;86.46
48810;BME280;40070;47.322;18.784;2023-05-18T03:22:21;1004.45;;;11.44;86.48
48810;BME280;40070;47.322;18.784;2023-05-18T03:24:22;1004.51;;;11.54;86.31
48810;BME280;40070;47.322;18.784;2023-05-18T03:26:22;1004.55;;;11.45;86.52
48810;BME280;40070;47.322;18.784;2023-05-18T03:28:23;1004.52;;;11.34;87.16
48810;BME280;40070;47.322;18.784;2023-05-18T03:30:24;1004.50;;;11.41;87.41
48810;BME280;40070;47.322;18.784;2023-05-18T03:32:25;1004.46;;;11.38;87.30
48810;BME280;40070;47.322;18.784;2023-05-18T03:34:26;1004.54;;;11.51;86.67
48810;BME280;40070;47.322;18.784;2023-05-18T03:36:27;1004.47;;;11.44;86.98
48810;BME280;40070;47.322;18.784;2023-05-18T03:40:53;1004.57;;;11.41;87.78
48810;BME280;40070;47.322;18.784;2023-05-18T03:42:54;1004.59;;;11.52;87.51
48810;BME280;40070;47.322;18.784;2023-05-18T03:44:55;1004.60;;;11.71;86.75
48810;BME280;40070;47.322;18.784;2023-05-18T03:47:01;1004.62;;;11.55;86.57
48810;BME280;40070;47.322;18.784;2023-05-18T03:49:02;1004.61;;;11.52;87.23
48810;BME280;40070;47.322;18.784;2023-05-18T03:51:03;1004.62;;;11.38;87.19
48810;BME280;40070;47.322;18.784;2023-05-18T03:53:04;1004.60;;;11.39;87.70
48810;BME280;40070;47.322;18.784;2023-05-18T03:55:05;1004.62;;;11.40;88.15
48810;BME280;40070;47.322;18.784;2023-05-18T03:57:14;1004.64;;;11.32;88.34
48810;BME280;40070;47.322;18.784;2023-05-18T03:59:19;1004.71;;;11.32;88.74
48810;BME280;40070;47.322;18.784;2023-05-18T04:01:20;1004.74;;;11.33;88.61
48810;BME280;40070;47.322;18.784;2023-05-18T04:03:33;1004.72;;;11.34;88.95
48810;BME280;40070;47.322;18.784;2023-05-18T04:05:34;1004.78;;;11.73;87.06
48810;BME280;40070;47.322;18.784;2023-05-18T04:07:35;1004.80;;;11.51;87.60
48810;BME280;40070;47.322;18.784;2023-05-18T04:12:02;1004.81;;;11.72;87.68
48810;BME280;40070;47.322;18.784;2023-05-18T04:14:24;1004.81;;;11.69;87.39
48810;BME280;40070;47.322;18.784;2023-05-18T04:16:30;1004.80;;;11.68;86.54
48810;BME280;40070;47.322;18.784;2023-05-18T04:18:40;1004.83;;;11.88;86.81
48810;BME280;40070;47.322;18.784;2023-05-18T04:20:54;1004.84;;;12.05;85.41
48810;BME280;40070;47.322;18.784;2023-05-18T04:23:05;1004.88;;;11.80;86.82
48810;BME280;40070;47.322;18.784;2023-05-18T04:25:12;1004.86;;;11.89;86.76
48810;BME280;40070;47.322;18.784;2023-05-18T04:27:17;1004.91;;;11.65;87.16
48810;BME280;40070;47.322;18.784;2023-05-18T04:29:30;1004.92;;;11.65;86.99
48810;BME280;40070;47.322;18.784;2023-05-18T04:31:34;1004.95;;;11.71;87.49
48810;BME280;40070;47.322;18.784;2023-05-18T04:33:40;1004.93;;;11.94;86.80
48810;BME280;40070;47.322;18.784;2023-05-18T04:35:46;1004.96;;;11.96;86.46
48810;BME280;40070;47.322;18.784;2023-05-18T04:37:52;1005.00;;;11.90;87.04
48810;BME280;40070;47.322;18.784;2023-05-18T04:39:53;1005.02;;;11.98;86.38
48810;BME280;40070;47.322;18.784;2023-05-18T04:41:54;1005.05;;;11.97;86.08
48810;BME280;40070;47.322;18.784;2023-05-18T04:43:55;1005.06;;;11.86;87.24
48810;BME280;40070;47.322;18.784;2023-05-18T04:45:56;1005.06;;;12.08;86.48
48810;BME280;40070;47.322;18.784;2023-05-18T04:47:57;1005.04;;;12.06;85.64
48810;BME280;40070;47.322;18.784;2023-05-18T04:50:12;1005.01;;;11.91;86.67
48810;BME280;40070;47.322;18.784;2023-05-18T04:52:25;1005.04;;;11.99;86.33
48810;BME280;40070;47.322;18.784;2023-05-18T04:54:27;1005.08;;;11.86;87.17
48810;BME280;40070;47.322;18.784;2023-05-18T04:58:53;1005.10;;;11.88;86.70
48810;BME280;40070;47.322;18.784;2023-05-18T05:00:54;1005.08;;;11.81;87.25
48810;BME280;40070;47.322;18.784;2023-05-18T05:02:55;1005.16;;;11.84;87.79
48810;BME280;40070;47.322;18.784;2023-05-18T05:07:22;1005.15;;;12.16;86.70
48810;BME280;40070;47.322;18.784;2023-05-18T05:09:47;1005.18;;;12.10;86.53
48810;BME280;40070;47.322;18.784;2023-05-18T05:11:51;1005.24;;;12.00;87.11
48810;BME280;40070;47.322;18.784;2023-05-18T05:13:57;1005.21;;;12.21;86.34
48810;BME280;40070;47.322;18.784;2023-05-18T05:16:03;1005.25;;;12.14;86.62
48810;BME280;40070;47.322;18.784;2023-05-18T05:18:04;1005.19;;;12.24;86.09
48810;BME280;40070;47.322;18.784;2023-05-18T05:20:29;1005.19;;;12.42;85.52
48810;BME280;40070;47.322;18.784;2023-05-18T05:22:35;1005.21;;;12.43;84.83
48810;BME280;40070;47.322;18.784;2023-05-18T05:24:41;1005.22;;;12.28;86.13
48810;BME280;40070;47.322;18.784;2023-05-18T05:26:47;1005.25;;;12.27;85.94
48810;BME280;40070;47.322;18.784;2023-05-18T05:28:57;1005.26;;;12.26;86.11
48810;BME280;40070;47.322;18.784;2023-05-18T05:38:26;1005.28;;;12.26;86.61
48810;BME280;40070;47.322;18.784;2023-05-18T05:40:32;1005.30;;;12.33;86.48
48810;BME280;40070;47.322;18.784;2023-05-18T05:42:37;1005.31;;;12.24;87.52
48810;BME280;40070;47.322;18.784;2023-05-18T05:44:44;1005.30;;;12.21;87.54
48810;BME280;40070;47.322;18.784;2023-05-18T05:46:50;1005.29;;;12.27;87.57
48810;BME280;40070;47.322;18.784;2023-05-18T05:48:56;1005.31;;;12.37;86.86
48810;BME280;40070;47.322;18.784;2023-05-18T05:51:02;1005.37;;;12.20;86.95
48810;BME280;40070;47.322;18.784;2023-05-18T05:55:16;1005.38;;;12.51;87.56
48810;BME280;40070;47.322;18.784;2023-05-18T05:57:22;1005.41;;;12.33;87.96
48810;BME280;40070;47.322;18.784;2023-05-18T05:59:27;1005.43;;;12.35;87.42
48810;BME280;40070;47.322;18.784;2023-05-18T06:01:33;1005.46;;;12.29;86.85
48810;BME280;40070;47.322;18.784;2023-05-18T06:03:39;1005.46;;;12.41;87.06
48810;BME280;40070;47.322;18.784;2023-05-18T06:05:45;1005.49;;;12.50;87.26
48810;BME280;40070;47.322;18.784;2023-05-18T06:07:51;1005.50;;;12.58;86.75
48810;BME280;40070;47.322;18.784;2023-05-18T06:09:56;1005.47;;;12.44;87.46
48810;BME280;40070;47.322;18.784;2023-05-18T06:12:03;1005.52;;;12.63;87.46
48810;BME280;40070;47.322;18.784;2023-05-18T06:14:22;1005.53;;;12.38;87.31
48810;BME280;40070;47.322;18.784;2023-05-18T06:16:35;1005.53;;;12.46;87.80
48810;BME280;40070;47.322;18.784;2023-05-18T06:18:36;1005.56;;;12.47;87.77
48810;BME280;40070;47.322;18.784;2023-05-18T06:20:37;1005.55;;;12.48;87.95
48810;BME280;40070;47.322;18.784;2023-05-18T06:25:12;1005.63;;;12.76;86.86
48810;BME280;40070;47.322;18.784;2023-05-18T06:27:19;1005.60;;;12.74;86.51
48810;BME280;40070;47.322;18.784;2023-05-18T06:29:25;1005.69;;;12.91;86.14
48810;BME280;40070;47.322;18.784;2023-05-18T06:31:31;1005.65;;;12.87;86.75
48810;BME280;40070;47.322;18.784;2023-05-18T06:33:37;1005.65;;;12.84;86.29
48810;BME280;40070;47.322;18.784;2023-05-18T06:35:38;1005.66;;;12.77;86.75
48810;BME280;40070;47.322;18.784;2023-05-18T06:37:57;1005.66;;;12.78;86.82
48810;BME280;40070;47.322;18.784;2023-05-18T06:40:03;1005.70;;;12.81;87.38
48810;BME280;40070;47.322;18.784;2023-05-18T06:42:04;1005.71;;;12.82;86.64
48810;BME280;40070;47.322;18.784;2023-05-18T06:44:18;1005.76;;;12.89;87.03
48810;BME280;40070;47.322;18.784;2023-05-18T06:46:24;1005.82;;;12.76;87.41
48810;BME280;40070;47.322;18.784;2023-05-18T06:48:26;1005.80;;;12.92;87.34
48810;BME280;40070;47.322;18.784;2023-05-18T06:52:53;1005.83;;;13.05;87.03
48810;BME280;40070;47.322;18.784;2023-05-18T06:54:53;1005.84;;;13.17;86.31
48810;BME280;40070;47.322;18.784;2023-05-18T06:56:54;1005.86;;;13.15;86.95
48810;BME280;40070;47.322;18.784;2023-05-18T06:58:55;1005.82;;;13.20;86.43
48810;BME280;40070;47.322;18.784;2023-05-18T07:00:59;1005.86;;;13.19;86.88
48810;BME280;40070;47.322;18.784;2023-05-18T07:03:06;1005.89;;;13.16;86.82
48810;BME280;40070;47.322;18.784;2023-05-18T07:05:11;1005.88;;;13.28;86.25
48810;BME280;40070;47.322;18.784;2023-05-18T07:07:18;1005.91;;;13.30;85.98
48810;BME280;40070;47.322;18.784;2023-05-18T07:09:24;1005.99;;;13.11;86.58
48810;BME280;40070;47.322;18.784;2023-05-18T07:11:30;1005.96;;;13.26;86.30
48810;BME280;40070;47.322;18.784;2023-05-18T07:13:31;1006.00;;;13.10;86.46
48810;BME280;40070;47.322;18.784;2023-05-18T07:17:58;1006.00;;;13.32;86.71
48810;BME280;40070;47.322;18.784;2023-05-18T07:20:16;1005.96;;;13.28;86.10
48810;BME280;40070;47.322;18.784;2023-05-18T07:22:29;1005.98;;;13.26;86.79
48810;BME280;40070;47.322;18.784;2023-05-18T07:24:32;1005.99;;;13.31;85.95
48810;BME280;40070;47.322;18.784;2023-05-18T07:26:33;1006.05;;;13.12;86.29
48810;BME280;40070;47.322;18.784;2023-05-18T07:28:58;1006.07;;;13.19;87.14
48810;BME280;40070;47.322;18.784;2023-05-18T07:30:59;1006.09;;;13.25;86.97
48810;BME280;40070;47.322;18.784;2023-05-18T07:33:12;1006.05;;;13.35;87.07
48810;BME280;40070;47.322;18.784;2023-05-18T07:35:13;1006.12;;;13.22;85.93
48810;BME280;40070;47.322;18.784;2023-05-18T07:37:28;1006.13;;;13.24;86.56
48810;BME280;40070;47.322;18.784;2023-05-18T07:39:29;1006.15;;;13.27;86.85
48810;BME280;40070;47.322;18.784;2023-05-18T07:41:29;1006.12;;;13.33;87.46
48810;BME280;40070;47.322;18.784;2023-05-18T07:43:30;1006.17;;;13.35;87.36
48810;BME280;40070;47.322;18.784;2023-05-18T07:45:31;1006.20;;;13.34;87.04
48810;BME280;40070;47.322;18.784;2023-05-18T07:47:32;1006.18;;;13.37;87.59
48810;BME280;40070;47.322;18.784;2023-05-18T07:49:33;1006.26;;;13.32;86.72
48810;BME280;40070;47.322;18.784;2023-05-18T07:51:34;1006.26;;;13.29;86.34
48810;BME280;40070;47.322;18.784;2023-05-18T07:53:35;1006.23;;;13.38;87.03
48810;BME280;40070;47.322;18.784;2023-05-18T07:58:01;1006.20;;;13.65;86.05
48810;BME280;40070;47.322;18.784;2023-05-18T08:02:27;1006.21;;;13.57;87.01
48810;BME280;40070;47.322;18.784;2023-05-18T08:04:28;1006.21;;;13.53;87.15
48810;BME280;40070;47.322;18.784;2023-05-18T08:09:11;1006.21;;;13.88;85.53
48810;BME280;40070;47.322;18.784;2023-05-18T08:11:24;1006.18;;;13.76;85.41
48810;BME280;40070;47.322;18.784;2023-05-18T08:13:25;1006.20;;;13.70;86.24
48810;BME280;40070;47.322;18.784;2023-05-18T08:15:26;1006.21;;;13.66;86.11
48810;BME280;40070;47.322;18.784;2023-05-18T08:17:27;1006.25;;;13.78;86.56
48810;BME280;40070;47.322;18.784;2023-05-18T08:19:31;1006.25;;;13.73;85.91
48810;BME280;40070;47.322;18.784;2023-05-18T08:21:32;1006.30;;;13.80;85.66
48810;BME280;40070;47.322;18.784;2023-05-18T08:23:37;1006.34;;;13.75;85.38
48810;BME280;40070;47.322;18.784;2023-05-18T08:25:38;1006.33;;;13.68;86.47
48810;BME280;40070;47.322;18.784;2023-05-18T08:27:39;1006.36;;;13.73;87.37
48810;BME280;40070;47.322;18.784;2023-05-18T08:29:39;1006.37;;;13.96;86.67
48810;BME280;40070;47.322;18.784;2023-05-18T08:31:40;1006.37;;;14.06;85.80
48810;BME280;40070;47.322;18.784;2023-05-18T08:33:44;1006.38;;;14.08;85.13
48810;BME280;40070;47.322;18.784;2023-05-18T08:35:45;1006.41;;;14.28;83.57
48810;BME280;40070;47.322;18.784;2023-05-18T08:37:46;1006.40;;;14.38;83.60
48810;BME280;40070;47.322;18.784;2023-05-18T08:39:47;1006.41;;;14.36;82.54
48810;BME280;40070;47.322;18.784;2023-05-18T08:42:01;1006.42;;;14.00;84.33
48810;BME280;40070;47.322;18.784;2023-05-18T08:44:24;1006.46;;;14.09;84.41
48810;BME280;40070;47.322;18.784;2023-05-18T08:46:33;1006.46;;;14.09;84.40
48810;BME280;40070;47.322;18.784;2023-05-18T08:48:37;1006.48;;;13.72;86.27
48810;BME280;40070;47.322;18.784;2023-05-18T08:50:43;1006.41;;;13.86;86.09
48810;BME280;40070;47.322;18.784;2023-05-18T08:52:50;1006.49;;;13.95;86.24
48810;BME280;40070;47.322;18.784;2023-05-18T08:54:54;1006.42;;;14.23;84.79
48810;BME280;40070;47.322;18.784;2023-05-18T08:57:06;1006.42;;;14.35;83.93
48810;BME280;40070;47.322;18.784;2023-05-18T08:59:07;1006.43;;;14.13;83.50
48810;BME280;40070;47.322;18.784;2023-05-18T09:01:12;1006.41;;;14.35;83.40
48810;BME280;40070;47.322;18.784;2023-05-18T09:03:18;1006.35;;;14.59;82.78
48810;BME280;40070;47.322;18.784;2023-05-18T09:05:26;1006.36;;;14.51;83.48
48810;BME280;40070;47.322;18.784;2023-05-18T09:07:31;1006.38;;;14.38;83.65
48810;BME280;40070;47.322;18.784;2023-05-18T09:09:38;1006.40;;;14.52;83.73
48810;BME280;40070;47.322;18.784;2023-05-18T09:11:42;1006.45;;;14.44;82.36
48810;BME280;40070;47.322;18.784;2023-05-18T09:13:49;1006.47;;;14.37;83.90
48810;BME280;40070;47.322;18.784;2023-05-18T09:16:07;1006.45;;;14.27;83.51
48810;BME280;40070;47.322;18.784;2023-05-18T09:18:14;1006.42;;;14.70;82.46
48810;BME280;40070;47.322;18.784;2023-05-18T09:20:20;1006.43;;;14.87;81.89
48810;BME280;40070;47.322;18.784;2023-05-18T09:22:24;1006.47;;;14.84;82.38
48810;BME280;40070;47.322;18.784;2023-05-18T09:24:26;1006.47;;;14.55;83.42
48810;BME280;40070;47.322;18.784;2023-05-18T09:26:27;1006.43;;;14.73;82.22
48810;BME280;40070;47.322;18.784;2023-05-18T09:28:52;1006.46;;;14.75;81.37
48810;BME280;40070;47.322;18.784;2023-05-18T09:30:57;1006.44;;;14.89;81.20
48810;BME280;40070;47.322;18.784;2023-05-18T09:33:03;1006.49;;;14.82;81.91
48810;BME280;40070;47.322;18.784;2023-05-18T09:35:04;1006.44;;;14.83;82.26
48810;BME280;40070;47.322;18.784;2023-05-18T09:37:20;1006.46;;;14.68;81.63
48810;BME280;40070;47.322;18.784;2023-05-18T09:39:23;1006.47;;;14.75;82.16
48810;BME280;40070;47.322;18.784;2023-05-18T09:41:25;1006.47;;;15.00;82.23
48810;BME280;40070;47.322;18.784;2023-05-18T09:43:26;1006.47;;;14.89;82.12
48810;BME280;40070;47.322;18.784;2023-05-18T09:45:28;1006.49;;;14.87;83.27
48810;BME280;40070;47.322;18.784;2023-05-18T09:47:29;1006.49;;;14.50;83.48
48810;BME280;40070;47.322;18.784;2023-05-18T09:49:30;1006.50;;;14.83;81.70
48810;BME280;40070;47.322;18.784;2023-05-18T09:51:34;1006.48;;;15.01;79.79
48810;BME280;40070;47.322;18.784;2023-05-18T09:53:35;1006.48;;;14.72;82.93
48810;BME280;40070;47.322;18.784;2023-05-18T09:55:44;1006.51;;;14.75;82.24
48810;BME280;40070;47.322;18.784;2023-05-18T09:57:46;1006.48;;;14.62;81.58
48810;BME280;40070;47.322;18.784;2023-05-18T10:00:03;1006.50;;;14.74;82.98
48810;BME280;40070;47.322;18.784;2023-05-18T10:02:09;1006.52;;;14.96;82.55
48810;BME280;40070;47.322;18.784;2023-05-18T10:04:15;1006.52;;;15.15;81.53
48810;BME280;40070;47.322;18.784;2023-05-18T10:06:25;1006.52;;;15.37;79.08
48810;BME280;40070;47.322;18.784;2023-05-18T10:08:27;1006.51;;;15.39;79.28
48810;BME280;40070;47.322;18.784;2023-05-18T10:10:28;1006.51;;;15.45;80.20
48810;BME280;40070;47.322;18.784;2023-05-18T10:12:40;1006.54;;;15.33;81.26
48810;BME280;40070;47.322;18.784;2023-05-18T10:14:47;1006.54;;;15.26;80.03
48810;BME280;40070;47.322;18.784;2023-05-18T10:26:21;1006.57;;;15.45;80.25
48810;BME280;40070;47.322;18.784;2023-05-18T10:38:04;1006.63;;;15.21;80.23
48810;BME280;40070;47.322;18.784;2023-05-18T10:40:06;1006.63;;;15.39;79.64
48810;BME280;40070;47.322;18.784;2023-05-18T10:51:10;1006.61;;;15.17;79.70
48810;BME280;40070;47.322;18.784;2023-05-18T10:55:51;1006.62;;;15.10;81.28
48810;BME280;40070;47.322;18.784;2023-05-18T10:58:00;1006.62;;;14.97;80.17
48810;BME280;40070;47.322;18.784;2023-05-18T11:00:04;1006.61;;;15.10;82.10
48810;BME280;40070;47.322;18.784;2023-05-18T11:06:52;1006.59;;;15.79;79.41
48810;BME280;40070;47.322;18.784;2023-05-18T11:09:02;1006.61;;;15.30;80.44
48810;BME280;40070;47.322;18.784;2023-05-18T11:11:06;1006.65;;;15.45;79.36
48810;BME280;40070;47.322;18.784;2023-05-18T11:13:13;1006.66;;;15.51;80.31
48810;BME280;40070;47.322;18.784;2023-05-18T11:15:19;1006.63;;;15.78;79.55
48810;BME280;40070;47.322;18.784;2023-05-18T11:17:25;1006.65;;;15.39;80.75
48810;BME280;40070;47.322;18.784;2023-05-18T11:21:51;1006.63;;;15.41;79.90
48810;BME280;40070;47.322;18.784;2023-05-18T11:26:17;1006.73;;;15.21;82.11
48810;BME280;40070;47.322;18.784;2023-05-18T11:44:27;1006.74;;;15.31;81.57
48810;BME280;40070;47.322;18.784;2023-05-18T11:46:29;1006.76;;;15.25;82.89
48810;BME280;40070;47.322;18.784;2023-05-18T11:48:42;1006.78;;;15.29;82.18
48810;BME280;40070;47.322;18.784;2023-05-18T11:50:55;1006.79;;;15.56;80.87
48810;BME280;40070;47.322;18.784;2023-05-18T11:52:56;1006.77;;;15.59;81.33
48810;BME280;40070;47.322;18.784;2023-05-18T11:55:02;1006.82;;;15.28;81.70
48810;BME280;40070;47.322;18.784;2023-05-18T12:04:19;1006.76;;;15.33;83.16
48810;BME280;40070;47.322;18.784;2023-05-18T12:06:34;1006.77;;;15.65;82.36
48810;BME280;40070;47.322;18.784;2023-05-18T12:08:40;1006.77;;;15.61;81.54
48810;BME280;40070;47.322;18.784;2023-05-18T12:12:54;1006.77;;;15.71;82.00
48810;BME280;40070;47.322;18.784;2023-05-18T12:14:58;1006.83;;;15.59;82.03
48810;BME280;40070;47.322;18.784;2023-05-18T12:17:05;1006.82;;;15.50;82.72
48810;BME280;40070;47.322;18.784;2023-05-18T12:19:11;1006.83;;;15.34;84.00
48810;BME280;40070;47.322;18.784;2023-05-18T12:25:29;1006.85;;;15.52;82.74
48810;BME280;40070;47.322;18.784;2023-05-18T12:29:55;1006.79;;;15.61;82.66
48810;BME280;40070;47.322;18.784;2023-05-18T12:36:52;1006.85;;;15.43;82.60
48810;BME280;40070;47.322;18.784;2023-05-18T12:38:56;1006.84;;;15.20;82.56
48810;BME280;40070;47.322;18.784;2023-05-18T12:40:57;1006.83;;;15.20;83.40
48810;BME280;40070;47.322;18.784;2023-05-18T12:42:59;1006.84;;;15.07;83.68
48810;BME280;40070;47.322;18.784;2023-05-18T12:45:11;1006.83;;;15.28;83.69
48810;BME280;40070;47.322;18.784;2023-05-18T12:47:12;1006.79;;;15.38;83.54
48810;BME280;40070;47.322;18.784;2023-05-18T12:54:26;1006.80;;;15.25;84.44
48810;BME280;40070;47.322;18.784;2023-05-18T12:56:27;1006.78;;;15.30;85.17
48810;BME280;40070;47.322;18.784;2023-05-18T12:58:28;1006.77;;;15.37;83.98